createdAt,value
2019-02-07T00:02:25.745Z,101857.34
2019-02-07T00:04:55.735Z,101882.58
2019-02-07T00:07:25.353Z,101876.10
2019-02-07T00:09:55.241Z,101876.59
2019-02-07T00:12:25.089Z,101882.16
2019-02-07T00:14:55.303Z,101894.08
2019-02-07T00:17:25.375Z,101894.56
2019-02-07T00:19:55.170Z,101894.13
2019-02-07T00:22:25.076Z,101890.66
2019-02-07T00:24:55.592Z,101884.71
2019-02-07T00:27:25.508Z,101880.45
2019-02-07T00:29:55.217Z,101872.36
2019-02-07T00:32:25.095Z,101847.13
2019-02-07T00:34:54.968Z,101889.43
2019-02-07T00:37:24.756Z,101892.42
2019-02-07T00:39:54.622Z,101866.37
2019-02-07T00:42:24.492Z,101877.45
2019-02-07T00:44:54.202Z,101887.30
2019-02-07T00:47:24.276Z,101880.11
2019-02-07T00:49:54.160Z,101875.84
2019-02-07T00:52:23.922Z,101885.25
2019-02-07T00:54:53.565Z,101901.52
2019-02-07T00:57:23.378Z,101907.87
2019-02-07T00:59:53.236Z,101888.19
2019-02-07T01:02:22.898Z,101896.32
2019-02-07T01:04:52.614Z,101895.47
2019-02-07T01:07:22.372Z,101900.66
2019-02-07T01:09:52.037Z,101887.83
2019-02-07T01:12:21.756Z,101891.67
2019-02-07T01:15:01.608Z,101886.63
2019-02-07T01:17:23.632Z,101879.80
2019-02-07T01:19:53.249Z,101882.80
2019-02-07T01:22:23.215Z,101883.31
2019-02-07T01:24:52.974Z,101843.56
2019-02-07T01:27:22.827Z,101861.52
2019-02-07T01:29:52.915Z,101879.05
2019-02-07T01:32:22.834Z,101854.66
2019-02-07T01:34:52.777Z,101866.27
2019-02-07T01:37:22.460Z,101885.52
2019-02-07T01:39:52.375Z,101868.03
2019-02-07T01:42:22.354Z,101897.07
2019-02-07T01:44:52.306Z,101861.58
2019-02-07T01:47:22.019Z,101858.68
2019-02-07T01:49:51.793Z,101887.38
2019-02-07T01:52:21.664Z,101903.23
2019-02-07T01:54:51.561Z,101916.16
2019-02-07T01:57:21.472Z,101914.87
2019-02-07T01:59:51.402Z,101888.84
2019-02-07T02:02:21.338Z,101910.30
2019-02-07T02:04:51.177Z,101921.80
2019-02-07T02:07:21.063Z,101905.56
2019-02-07T02:09:51.082Z,101878.25
2019-02-07T02:12:21.033Z,101912.91
2019-02-07T02:14:50.916Z,101883.47
2019-02-07T02:17:20.863Z,101893.26
2019-02-07T02:19:50.619Z,101895.77
2019-02-07T02:22:20.333Z,101909.41
2019-02-07T02:24:50.090Z,101894.92
2019-02-07T02:27:20.297Z,101908.55
2019-02-07T02:29:50.187Z,101889.32
2019-02-07T02:32:20.079Z,101879.48
2019-02-07T02:34:49.917Z,101894.45
2019-02-07T02:37:20.373Z,101887.09
2019-02-07T02:39:50.321Z,101899.01
2019-02-07T02:42:20.349Z,101890.98
2019-02-07T02:44:50.112Z,101901.15
2019-02-07T02:47:19.912Z,101901.58
2019-02-07T02:49:49.679Z,101913.17
2019-02-07T02:52:19.504Z,101916.11
2019-02-07T02:54:52.897Z,101930.73
2019-02-07T02:57:22.666Z,101915.02
2019-02-07T02:59:52.612Z,101921.86
2019-02-07T03:02:47.218Z,101909.45
2019-02-07T03:05:51.390Z,101917.63
2019-02-07T03:08:38.941Z,101922.36
2019-02-07T03:11:26.514Z,101913.81
2019-02-07T03:14:24.558Z,101883.89
2019-02-07T03:17:04.919Z,101929.63
2019-02-07T03:19:56.844Z,101908.17
2019-02-07T03:22:52.141Z,101915.44
2019-02-07T03:25:46.842Z,101909.03
2019-02-07T03:28:54.145Z,101897.06
2019-02-07T03:31:49.003Z,101890.22
2019-02-07T03:34:29.545Z,101910.31
2019-02-07T03:37:37.012Z,101872.31
2019-02-07T03:40:36.124Z,101863.38
2019-02-07T03:43:18.936Z,101896.68
2019-02-07T03:46:20.182Z,101874.48
2019-02-07T03:48:56.101Z,101877.91
2019-02-07T03:51:43.736Z,101905.30
2019-02-07T03:54:38.585Z,101915.13
2019-02-07T03:57:33.383Z,101885.69
2019-02-07T04:00:11.751Z,101913.43
2019-02-07T04:02:56.565Z,101893.81
2019-02-07T04:06:00.443Z,101880.98
2019-02-07T04:08:52.037Z,101895.60
2019-02-07T04:11:40.629Z,101908.45
2019-02-07T04:14:32.174Z,101887.98
2019-02-07T04:17:21.545Z,101890.98
2019-02-07T04:20:22.393Z,101883.76
2019-02-07T04:23:04.031Z,101897.85
2019-02-07T04:25:53.172Z,101900.81
2019-02-07T04:28:40.696Z,101893.16
2019-02-07T04:31:24.830Z,101849.58
2019-02-07T04:34:17.596Z,101906.36
2019-02-07T04:37:21.309Z,101893.12
2019-02-07T04:40:12.094Z,101942.67
2019-02-07T04:43:02.143Z,101904.27
2019-02-07T04:45:50.872Z,101914.48
2019-02-07T04:48:39.921Z,101901.63
2019-02-07T04:51:37.667Z,101914.91
2019-02-07T04:54:29.320Z,101921.77
2019-02-07T04:57:20.472Z,101895.33
2019-02-07T05:00:21.168Z,101886.75
2019-02-07T05:03:09.898Z,101899.14
2019-02-07T05:06:04.484Z,101859.02
2019-02-07T05:08:47.974Z,101901.77
2019-02-07T05:11:37.601Z,101891.02
2019-02-07T05:14:26.156Z,101878.63
2019-02-07T05:17:14.528Z,101900.45
2019-02-07T05:20:01.944Z,101900.03
2019-02-07T05:22:49.552Z,101879.56
2019-02-07T05:25:37.121Z,101882.55
2019-02-07T05:28:37.975Z,101883.41
2019-02-07T05:31:30.284Z,101892.84
2019-02-07T05:34:17.770Z,101860.30
2019-02-07T05:37:12.757Z,101879.09
2019-02-07T05:40:01.600Z,101893.62
2019-02-07T05:43:02.821Z,101873.52
2019-02-07T05:45:47.677Z,101863.67
2019-02-07T05:48:35.330Z,101873.12
2019-02-07T05:51:22.799Z,101872.27
2019-02-07T05:54:10.057Z,101885.89
2019-02-07T05:57:14.351Z,101857.28
2019-02-07T06:00:18.699Z,101876.07
2019-02-07T06:03:16.379Z,101897.43
2019-02-07T06:06:05.152Z,101872.27
2019-02-07T06:08:52.659Z,101893.59
2019-02-07T06:11:50.583Z,101876.92
2019-02-07T06:14:39.267Z,101876.97
2019-02-07T06:17:23.848Z,101874.40
2019-02-07T06:20:18.711Z,101863.76
2019-02-07T06:23:13.489Z,101867.56
2019-02-07T06:26:04.331Z,101873.97
2019-02-07T06:28:50.672Z,101860.30
2019-02-07T06:31:34.210Z,101843.65
2019-02-07T06:34:28.566Z,101869.74
2019-02-07T06:37:08.714Z,101873.08
2019-02-07T06:39:57.473Z,101879.88
2019-02-07T06:42:37.982Z,101877.81
2019-02-07T06:45:26.072Z,101867.56
2019-02-07T06:48:33.991Z,101893.16
2019-02-07T06:51:16.663Z,101910.16
2019-02-07T06:54:14.255Z,101914.86
2019-02-07T06:57:03.092Z,101919.56
2019-02-07T07:00:00.680Z,101929.86
2019-02-07T07:02:45.860Z,101917.82
2019-02-07T07:05:37.711Z,101914.79
2019-02-07T07:08:22.912Z,101937.86
2019-02-07T07:11:09.947Z,101941.16
2019-02-07T07:13:58.750Z,101938.64
2019-02-07T07:16:56.536Z,101926.59
2019-02-07T07:19:38.977Z,101939.50
2019-02-07T07:22:26.476Z,101951.03
2019-02-07T07:25:18.511Z,101943.77
2019-02-07T07:28:07.237Z,101951.73
2019-02-07T07:30:58.665Z,101957.62
2019-02-07T07:33:52.556Z,101961.59
2019-02-07T07:36:40.197Z,101957.67
2019-02-07T07:39:32.643Z,101966.73
2019-02-07T07:42:36.720Z,101952.63
2019-02-07T07:45:40.752Z,101942.91
2019-02-07T07:48:28.322Z,101947.19
2019-02-07T07:51:13.770Z,101943.84
2019-02-07T07:54:01.094Z,101929.35
2019-02-07T07:57:00.977Z,101919.57
2019-02-07T07:59:49.728Z,101932.31
2019-02-07T08:02:36.080Z,101901.16
2019-02-07T08:05:29.624Z,101933.55
2019-02-07T08:08:30.262Z,101905.81
2019-02-07T08:11:19.241Z,101933.55
2019-02-07T08:13:56.437Z,101942.48
2019-02-07T08:16:39.053Z,101919.84
2019-02-07T08:19:26.483Z,101923.64
2019-02-07T08:22:30.932Z,101929.03
2019-02-07T08:25:18.100Z,101931.13
2019-02-07T08:28:05.479Z,101920.77
2019-02-07T08:31:09.462Z,101925.77
2019-02-07T08:34:10.713Z,101935.73
2019-02-07T08:37:17.613Z,101924.53
2019-02-07T08:40:05.200Z,101933.17
2019-02-07T08:42:53.297Z,101953.70
2019-02-07T08:45:40.664Z,101936.64
2019-02-07T08:48:35.274Z,101945.19
2019-02-07T08:51:31.504Z,101953.01
2019-02-07T08:54:25.838Z,101953.44
2019-02-07T08:57:24.839Z,101928.30
2019-02-07T09:00:20.105Z,101933.47
2019-02-07T09:02:57.989Z,101961.28
2019-02-07T09:05:45.597Z,101946.25
2019-02-07T09:08:37.380Z,101938.98
2019-02-07T09:11:41.181Z,101969.37
2019-02-07T09:14:30.550Z,101980.84
2019-02-07T09:17:19.567Z,101975.78
2019-02-07T09:20:16.388Z,101965.80
2019-02-07T09:23:11.121Z,101975.59
2019-02-07T09:25:59.649Z,101981.53
2019-02-07T09:28:57.647Z,101981.10
2019-02-07T09:31:46.443Z,101976.79
2019-02-07T09:34:38.421Z,101978.02
2019-02-07T09:37:26.071Z,101969.52
2019-02-07T09:40:15.544Z,101965.28
2019-02-07T09:43:10.371Z,101964.73
2019-02-07T09:46:05.331Z,101966.86
2019-02-07T09:49:08.965Z,101950.74
2019-02-07T09:51:55.551Z,101947.80
2019-02-07T09:54:39.500Z,101955.07
2019-02-07T09:57:31.865Z,101960.16
2019-02-07T10:00:20.663Z,101933.69
2019-02-07T10:03:08.187Z,101948.27
2019-02-07T10:06:02.770Z,101914.92
2019-02-07T10:08:51.502Z,101896.58
2019-02-07T10:11:52.200Z,101879.39
2019-02-07T10:14:31.377Z,101893.80
2019-02-07T10:17:15.583Z,101921.63
2019-02-07T10:20:02.921Z,101884.81
2019-02-07T10:22:51.649Z,101902.91
2019-02-07T10:25:51.293Z,101882.34
2019-02-07T10:28:40.313Z,101876.26
2019-02-07T10:31:28.947Z,101876.68
2019-02-07T10:34:30.176Z,101862.48
2019-02-07T10:37:34.186Z,101862.52
2019-02-07T10:40:14.836Z,101868.09
2019-02-07T10:43:11.313Z,101855.27
2019-02-07T10:46:04.253Z,101852.68
2019-02-07T10:49:02.130Z,101823.45
2019-02-07T10:51:53.857Z,101844.72
2019-02-07T10:54:48.508Z,101839.70
2019-02-07T10:57:29.330Z,101818.44
2019-02-07T11:00:12.100Z,101838.36
2019-02-07T11:03:13.157Z,101832.69
2019-02-07T11:05:54.506Z,101839.90
2019-02-07T11:08:48.073Z,101819.44
2019-02-07T11:11:45.904Z,101818.62
2019-02-07T11:14:33.492Z,101848.58
2019-02-07T11:17:22.372Z,101819.55
2019-02-07T11:20:10.241Z,101800.34
2019-02-07T11:22:58.296Z,101827.93
2019-02-07T11:25:52.985Z,101806.70
2019-02-07T11:28:47.884Z,101820.71
2019-02-07T11:31:39.495Z,101804.82
2019-02-07T11:34:45.887Z,101827.77
2019-02-07T11:37:43.129Z,101815.82
2019-02-07T11:40:31.563Z,101814.17
2019-02-07T11:43:17.396Z,101804.70
2019-02-07T11:46:15.347Z,101807.20
2019-02-07T11:49:06.846Z,101816.15
2019-02-07T11:51:56.559Z,101806.41
2019-02-07T11:54:38.220Z,101802.94
2019-02-07T11:57:29.945Z,101803.30
2019-02-07T12:00:18.498Z,101803.16
2019-02-07T12:03:05.858Z,101794.12
2019-02-07T12:05:53.455Z,101788.87
2019-02-07T12:08:40.852Z,101793.05
2019-02-07T12:11:39.020Z,101808.49
2019-02-07T12:14:40.247Z,101803.34
2019-02-07T12:17:27.841Z,101784.50
2019-02-07T12:20:16.260Z,101789.92
2019-02-07T12:23:14.726Z,101805.70
2019-02-07T12:26:03.473Z,101789.73
2019-02-07T12:28:45.767Z,101788.30
2019-02-07T12:31:33.497Z,101775.30
2019-02-07T12:34:15.483Z,101769.16
2019-02-07T12:36:58.866Z,101785.31
2019-02-07T12:39:56.626Z,101764.74
2019-02-07T12:42:56.037Z,101779.86
2019-02-07T12:45:55.363Z,101768.94
2019-02-07T12:48:42.599Z,101762.46
2019-02-07T12:51:49.402Z,101756.86
2019-02-07T12:54:33.352Z,101754.64
2019-02-07T12:57:20.593Z,101756.61
2019-02-07T13:00:15.684Z,101758.09
2019-02-07T13:03:10.082Z,101771.34
2019-02-07T13:06:14.176Z,101760.81
2019-02-07T13:09:08.755Z,101766.95
2019-02-07T13:11:56.728Z,101752.42
2019-02-07T13:14:48.733Z,101735.50
2019-02-07T13:17:46.875Z,101753.44
2019-02-07T13:20:40.881Z,101758.67
2019-02-07T13:23:41.811Z,101759.11
2019-02-07T13:26:42.485Z,101765.80
2019-02-07T13:29:43.830Z,101764.14
2019-02-07T13:32:41.380Z,101747.17
2019-02-07T13:35:29.157Z,101759.59
2019-02-07T13:38:16.582Z,101755.69
2019-02-07T13:41:06.799Z,101762.20
2019-02-07T13:43:53.442Z,101770.25
2019-02-07T13:46:35.537Z,101770.33
2019-02-07T13:49:23.471Z,101762.75
2019-02-07T13:52:12.153Z,101759.63
2019-02-07T13:55:00.871Z,101759.55
2019-02-07T13:57:48.409Z,101754.88
2019-02-07T14:00:35.494Z,101770.92
2019-02-07T14:03:17.542Z,101744.51
2019-02-07T14:05:58.599Z,101756.60
2019-02-07T14:08:45.247Z,101765.64
2019-02-07T14:11:39.814Z,101770.45
2019-02-07T14:14:34.268Z,101778.95
2019-02-07T14:17:26.227Z,101767.88
2019-02-07T14:20:13.659Z,101740.89
2019-02-07T14:23:00.842Z,101769.31
2019-02-07T14:25:52.992Z,101762.87
2019-02-07T14:29:00.012Z,101776.19
2019-02-07T14:31:47.400Z,101765.45
2019-02-07T14:34:46.266Z,101772.33
2019-02-07T14:37:35.274Z,101760.81
2019-02-07T14:40:27.684Z,101773.60
2019-02-07T14:43:28.619Z,101762.91
2019-02-07T14:46:17.375Z,101754.80
2019-02-07T14:48:48.387Z,101725.86
2019-02-07T14:51:18.291Z,101765.69
2019-02-07T14:53:48.117Z,101771.23
2019-02-07T14:56:17.984Z,101742.55
2019-02-07T14:58:48.980Z,101771.19
2019-02-07T15:01:18.781Z,101747.70
2019-02-07T15:03:49.844Z,101776.80
2019-02-07T15:06:19.622Z,101751.19
2019-02-07T15:08:49.453Z,101770.97
2019-02-07T15:11:19.432Z,101756.11
2019-02-07T15:13:49.756Z,101751.34
2019-02-07T15:16:19.505Z,101732.58
2019-02-07T15:18:49.269Z,101753.60
2019-02-07T15:21:19.059Z,101742.48
2019-02-07T15:23:48.745Z,101762.11
2019-02-07T15:26:18.836Z,101751.54
2019-02-07T15:28:48.681Z,101771.30
2019-02-07T15:31:18.497Z,101770.39
2019-02-07T15:33:48.483Z,101762.23
2019-02-07T15:36:18.162Z,101770.82
2019-02-07T15:38:48.268Z,101771.23
2019-02-07T15:41:18.526Z,101751.20
2019-02-07T15:43:48.395Z,101788.00
2019-02-07T15:46:18.207Z,101747.83
2019-02-07T15:48:49.166Z,101763.72
2019-02-07T15:51:19.161Z,101771.81
2019-02-07T15:53:49.522Z,101794.05
2019-02-07T15:56:20.562Z,101800.54
2019-02-07T15:59:04.913Z,101783.01
2019-02-07T16:01:41.946Z,101809.16
2019-02-07T16:04:24.413Z,101766.86
2019-02-07T16:06:55.579Z,101787.03
2019-02-07T16:09:25.574Z,101794.31
2019-02-07T16:11:55.387Z,101757.08
2019-02-07T16:14:26.534Z,101809.78
2019-02-07T16:16:56.651Z,101758.06
2019-02-07T16:19:26.750Z,101806.86
2019-02-07T16:21:58.024Z,101799.14
2019-02-07T16:24:27.811Z,101758.94
2019-02-07T16:26:57.841Z,101773.42
2019-02-07T16:29:27.687Z,101808.14
2019-02-07T16:31:57.845Z,101788.50
2019-02-07T16:34:28.080Z,101788.45
2019-02-07T16:36:57.927Z,101781.72
2019-02-07T16:39:28.267Z,101790.64
2019-02-07T16:42:06.088Z,101797.92
2019-02-07T16:44:29.587Z,101772.31
2019-02-07T16:46:59.560Z,101784.65
2019-02-07T16:49:29.654Z,101798.72
2019-02-07T16:51:59.491Z,101778.23
2019-02-07T16:54:29.385Z,101794.97
2019-02-07T16:56:59.309Z,101786.78
2019-02-07T16:59:29.274Z,101795.72
2019-02-07T17:01:58.919Z,101799.21
2019-02-07T17:04:28.906Z,101784.22
2019-02-07T17:06:58.550Z,101785.52
2019-02-07T17:09:35.751Z,101808.55
2019-02-07T17:12:05.829Z,101765.34
2019-02-07T17:14:35.684Z,101780.31
2019-02-07T17:17:05.694Z,101786.30
2019-02-07T17:19:36.781Z,101797.43
2019-02-07T17:22:06.776Z,101777.81
2019-02-07T17:24:36.658Z,101786.24
2019-02-07T17:27:06.952Z,101766.13
2019-02-07T17:29:36.926Z,101787.11
2019-02-07T17:32:06.941Z,101777.64
2019-02-07T17:34:38.111Z,101747.31
2019-02-07T17:37:07.792Z,101758.91
2019-02-07T17:39:37.523Z,101778.17
2019-02-07T17:42:07.353Z,101772.67
2019-02-07T17:44:37.126Z,101786.30
2019-02-07T17:47:06.975Z,101782.47
2019-02-07T17:49:37.099Z,101783.25
2019-02-07T17:52:07.240Z,101762.30
2019-02-07T17:54:37.080Z,101767.53
2019-02-07T17:57:06.812Z,101767.48
2019-02-07T17:59:36.626Z,101761.98
2019-02-07T18:02:08.772Z,101756.05
2019-02-07T18:04:38.611Z,101758.06
2019-02-07T18:07:08.637Z,101766.61
2019-02-07T18:09:38.828Z,101753.48
2019-02-07T18:12:08.773Z,101773.53
2019-02-07T18:14:38.696Z,101757.28
2019-02-07T18:17:08.997Z,101766.25
2019-02-07T18:19:38.867Z,101775.66
2019-02-07T18:22:08.557Z,101741.56
2019-02-07T18:24:38.663Z,101769.75
2019-02-07T18:27:08.534Z,101760.75
2019-02-07T18:29:38.496Z,101790.16
2019-02-07T18:32:08.412Z,101774.77
2019-02-07T18:34:38.609Z,101751.21
2019-02-07T18:37:08.457Z,101747.43
2019-02-07T18:39:38.626Z,101757.70
2019-02-07T18:42:08.401Z,101761.55
2019-02-07T18:44:38.359Z,101773.16
2019-02-07T18:47:08.123Z,101722.27
2019-02-07T18:49:37.935Z,101760.27
2019-02-07T18:52:07.821Z,101750.91
2019-02-07T18:54:37.983Z,101769.63
2019-02-07T18:57:07.795Z,101756.37
2019-02-07T18:59:37.549Z,101770.54
2019-02-07T19:02:07.646Z,101739.72
2019-02-07T19:04:37.653Z,101746.89
2019-02-07T19:07:07.707Z,101764.91
2019-02-07T19:09:37.580Z,101778.59
2019-02-07T19:12:07.409Z,101775.26
2019-02-07T19:14:37.501Z,101783.81
2019-02-07T19:17:07.337Z,101782.94
2019-02-07T19:19:37.142Z,101759.03
2019-02-07T19:22:07.547Z,101771.45
2019-02-07T19:24:37.401Z,101772.26
2019-02-07T19:27:07.313Z,101777.02
2019-02-07T19:29:37.290Z,101776.64
2019-02-07T19:32:07.201Z,101776.16
2019-02-07T19:34:36.960Z,101754.72
2019-02-07T19:37:06.879Z,101769.31
2019-02-07T19:39:36.732Z,101782.58
2019-02-07T19:42:06.929Z,101774.45
2019-02-07T19:44:36.941Z,101782.64
2019-02-07T19:47:07.300Z,101762.16
2019-02-07T19:49:37.188Z,101780.56
2019-02-07T19:52:08.502Z,101774.08
2019-02-07T19:54:39.800Z,101756.97
2019-02-07T19:57:09.481Z,101774.93
2019-02-07T19:59:39.496Z,101754.48
2019-02-07T20:02:10.897Z,101764.24
2019-02-07T20:04:40.866Z,101762.09
2019-02-07T20:07:10.803Z,101778.42
2019-02-07T20:09:40.732Z,101765.16
2019-02-07T20:12:10.417Z,101772.86
2019-02-07T20:14:40.225Z,101753.19
2019-02-07T20:17:10.199Z,101775.01
2019-02-07T20:19:39.949Z,101775.84
2019-02-07T20:22:19.940Z,101769.00
2019-02-07T20:27:13.602Z,101745.91
2019-02-07T20:29:43.343Z,101765.58
2019-02-07T20:32:13.116Z,101757.88
2019-02-07T20:34:42.930Z,101761.73
2019-02-07T20:37:13.305Z,101762.52
2019-02-07T20:39:43.115Z,101761.25
2019-02-07T20:42:12.992Z,101757.88
2019-02-07T20:44:42.599Z,101766.86
2019-02-07T20:47:12.575Z,101762.59
2019-02-07T20:49:42.230Z,101761.26
2019-02-07T20:52:12.142Z,101762.11
2019-02-07T20:54:43.560Z,101746.75
2019-02-07T20:57:13.342Z,101744.12
2019-02-07T20:59:43.129Z,101748.55
2019-02-07T21:02:12.877Z,101756.61
2019-02-07T21:04:42.678Z,101751.54
2019-02-07T21:07:12.473Z,101740.05
2019-02-07T21:09:43.541Z,101750.73
2019-02-07T21:12:13.328Z,101751.59
2019-02-07T21:14:43.288Z,101758.75
2019-02-07T21:17:12.953Z,101741.26
2019-02-07T21:19:42.659Z,101741.33
2019-02-07T21:22:12.535Z,101742.08
2019-02-07T21:24:42.767Z,101736.67
2019-02-07T21:27:12.530Z,101741.33
2019-02-07T21:29:42.431Z,101742.31
2019-02-07T21:32:12.392Z,101743.52
2019-02-07T21:34:42.164Z,101753.84
2019-02-07T21:37:11.985Z,101754.71
2019-02-07T21:39:42.264Z,101746.09
2019-02-07T21:42:12.138Z,101762.88
2019-02-07T21:44:41.834Z,101753.05
2019-02-07T21:47:11.690Z,101760.31
2019-02-07T21:49:41.443Z,101756.11
2019-02-07T21:52:11.278Z,101750.11
2019-02-07T21:54:41.330Z,101761.24
2019-02-07T21:57:11.477Z,101759.42
2019-02-07T21:59:41.139Z,101763.32
2019-02-07T22:02:10.888Z,101757.77
2019-02-07T22:04:40.776Z,101750.01
2019-02-07T22:07:10.468Z,101754.66
2019-02-07T22:09:40.303Z,101758.29
2019-02-07T22:12:10.235Z,101759.11
2019-02-07T22:14:40.006Z,101750.12
2019-02-07T22:17:09.838Z,101738.31
2019-02-07T22:19:39.777Z,101736.61
2019-02-07T22:22:09.791Z,101739.11
2019-02-07T22:24:39.499Z,101730.13
2019-02-07T22:27:09.436Z,101743.02
2019-02-07T22:29:39.322Z,101739.06
2019-02-07T22:32:09.256Z,101739.50
2019-02-07T22:34:39.192Z,101741.27
2019-02-07T22:37:08.948Z,101752.86
2019-02-07T22:39:39.223Z,101734.89
2019-02-07T22:42:09.190Z,101736.13
2019-02-07T22:44:39.018Z,101735.27
2019-02-07T22:47:08.988Z,101739.13
2019-02-07T22:49:38.859Z,101736.12
2019-02-07T22:52:08.974Z,101746.77
2019-02-07T22:54:39.022Z,101747.98
2019-02-07T22:57:08.803Z,101743.11
2019-02-07T22:59:38.623Z,101744.92
2019-02-07T23:02:09.393Z,101741.64
2019-02-07T23:04:39.384Z,101740.00
2019-02-07T23:07:10.336Z,101742.92
2019-02-07T23:09:40.164Z,101738.11
2019-02-07T23:12:09.944Z,101738.13
2019-02-07T23:14:39.977Z,101742.17
2019-02-07T23:17:10.020Z,101745.30
2019-02-07T23:19:39.918Z,101744.98
2019-02-07T23:22:09.904Z,101739.37
2019-02-07T23:24:39.575Z,101742.68
2019-02-07T23:27:09.440Z,101739.80
2019-02-07T23:29:39.284Z,101746.77
2019-02-07T23:32:09.248Z,101741.20
2019-02-07T23:34:38.980Z,101736.02
2019-02-07T23:37:08.799Z,101732.59
2019-02-07T23:39:38.571Z,101732.16
2019-02-07T23:42:08.469Z,101730.39
2019-02-07T23:44:38.344Z,101726.13
2019-02-07T23:47:08.200Z,101730.45
2019-02-07T23:49:39.131Z,101721.17
2019-02-07T23:52:09.755Z,101716.53
2019-02-07T23:54:39.648Z,101711.33
2019-02-07T23:57:09.625Z,101699.53
2019-02-07T23:59:39.386Z,101707.12
